createdAt,value
2017-09-13T00:04:29.000Z,62.466
2017-09-13T00:14:29.000Z,62.538
2017-09-13T00:24:29.000Z,62.551
2017-09-13T00:34:29.000Z,62.817
2017-09-13T00:44:29.000Z,62.63
2017-09-13T00:54:29.000Z,62.585
2017-09-13T01:04:29.000Z,62.647
2017-09-13T01:14:29.000Z,62.652
2017-09-13T01:24:29.000Z,62.748
2017-09-13T01:34:29.000Z,62.703
2017-09-13T01:44:29.000Z,62.703
2017-09-13T01:54:29.000Z,62.668
2017-09-13T02:04:29.000Z,62.781
2017-09-13T02:14:29.000Z,62.619
2017-09-13T02:24:29.000Z,62.693
2017-09-13T02:34:29.000Z,62.712
2017-09-13T02:44:29.000Z,62.729
2017-09-13T02:54:29.000Z,62.981
2017-09-13T03:04:29.000Z,62.884
2017-09-13T03:14:29.000Z,62.829
2017-09-13T03:24:29.000Z,62.75
2017-09-13T03:34:29.000Z,63.077
2017-09-13T03:44:29.000Z,62.926
2017-09-13T03:54:29.000Z,62.871
2017-09-13T04:04:29.000Z,62.901
2017-09-13T04:24:29.000Z,62.777
2017-09-13T04:34:29.000Z,62.903
2017-09-13T04:44:29.000Z,62.77
2017-09-13T04:54:29.000Z,62.943
2017-09-13T05:04:29.000Z,62.843
2017-09-13T05:14:29.000Z,62.993
2017-09-13T05:24:30.000Z,62.709
2017-09-13T05:34:29.000Z,62.742
2017-09-13T05:44:29.000Z,62.942
2017-09-13T05:54:29.000Z,63.313
2017-09-13T06:04:29.000Z,63.237
2017-09-13T06:14:30.000Z,63.038
2017-09-13T06:24:30.000Z,62.905
2017-09-13T06:34:32.000Z,62.776
2017-09-13T06:44:30.000Z,63.442
2017-09-13T06:54:30.000Z,63.344
2017-09-13T07:04:30.000Z,62.988
2017-09-13T07:14:30.000Z,62.776
2017-09-13T07:24:30.000Z,62.44
2017-09-13T07:34:30.000Z,62.125
2017-09-13T07:44:30.000Z,62.541
2017-09-13T07:54:30.000Z,63.182
2017-09-13T08:04:30.000Z,63.379
2017-09-13T08:14:30.000Z,63.335
2017-09-13T08:24:30.000Z,63.166
2017-09-13T08:34:30.000Z,63.058
2017-09-13T08:44:30.000Z,62.585
2017-09-13T08:54:30.000Z,62.284
2017-09-13T09:04:30.000Z,62.585
2017-09-13T09:14:30.000Z,62.154
2017-09-13T09:24:30.000Z,62.257
2017-09-13T09:34:30.000Z,62.353
2017-09-13T09:44:30.000Z,61.874
2017-09-13T09:54:30.000Z,62.001
2017-09-13T10:04:30.000Z,61.879
2017-09-13T10:14:30.000Z,61.205
2017-09-13T10:24:30.000Z,60.956
2017-09-13T10:34:30.000Z,60.602
2017-09-13T10:44:40.000Z,60.45
2017-09-13T10:54:40.000Z,59.912
2017-09-13T11:04:40.000Z,59.863
2017-09-13T11:14:41.000Z,59.474
2017-09-13T11:24:41.000Z,59.484
2017-09-13T11:34:41.000Z,59.6
2017-09-13T11:44:41.000Z,58.912
2017-09-13T11:54:41.000Z,58.943
2017-09-13T12:04:41.000Z,58.563
2017-09-13T12:14:41.000Z,58.645
2017-09-13T12:24:41.000Z,58.464
2017-09-13T12:34:41.000Z,58.484
2017-09-13T12:44:41.000Z,58.112
2017-09-13T12:54:41.000Z,57.953
2017-09-13T13:04:41.000Z,58.217
2017-09-13T13:14:41.000Z,58.375
2017-09-13T13:24:41.000Z,58.311
2017-09-13T13:34:41.000Z,58.48
2017-09-13T13:44:41.000Z,58.446
2017-09-13T13:54:41.000Z,58.359
2017-09-13T14:04:41.000Z,58.327
2017-09-13T14:14:41.000Z,58.315
2017-09-13T14:24:41.000Z,58.356
2017-09-13T14:34:41.000Z,58.335
2017-09-13T14:44:41.000Z,58.493
2017-09-13T14:54:41.000Z,58.386
2017-09-13T15:04:41.000Z,57.557
2017-09-13T15:14:41.000Z,58.276
2017-09-13T15:24:41.000Z,58.292
2017-09-13T15:34:41.000Z,58.574
2017-09-13T15:44:41.000Z,57.994
2017-09-13T15:54:41.000Z,58.604
2017-09-13T16:04:41.000Z,59.065
2017-09-13T16:14:41.000Z,59.258
2017-09-13T16:24:41.000Z,59.459
2017-09-13T16:34:41.000Z,59.208
2017-09-13T16:44:41.000Z,58.256
2017-09-13T16:54:41.000Z,58.87
2017-09-13T17:04:41.000Z,59.12
2017-09-13T17:14:41.000Z,58.931
2017-09-13T17:24:41.000Z,59.387
2017-09-13T17:34:41.000Z,59.803
2017-09-13T17:44:41.000Z,59.899
2017-09-13T17:54:41.000Z,60.013
2017-09-13T18:04:41.000Z,60.137
2017-09-13T18:14:41.000Z,60
2017-09-13T18:24:41.000Z,60.119
2017-09-13T18:34:41.000Z,60.277
2017-09-13T18:44:41.000Z,60.5
2017-09-13T18:54:41.000Z,61.762
2017-09-13T19:04:41.000Z,61.956
2017-09-13T19:14:41.000Z,62.1
2017-09-13T19:24:41.000Z,62.315
2017-09-13T19:34:41.000Z,61.722
2017-09-13T19:44:42.000Z,61.109
2017-09-13T19:54:42.000Z,60.731
2017-09-13T20:04:42.000Z,60.553
2017-09-13T20:14:42.000Z,60.552
2017-09-13T20:24:42.000Z,60.512
2017-09-13T20:34:46.000Z,60.638
2017-09-13T20:44:42.000Z,60.521
2017-09-13T20:54:42.000Z,60.53
2017-09-13T21:04:42.000Z,60.783
2017-09-13T21:14:42.000Z,60.665
2017-09-13T21:24:42.000Z,60.747
2017-09-13T21:34:42.000Z,60.687
2017-09-13T21:44:42.000Z,60.605
2017-09-13T21:54:42.000Z,60.622
2017-09-13T22:04:42.000Z,60.8
2017-09-13T22:14:42.000Z,60.731
2017-09-13T22:24:42.000Z,60.63
2017-09-13T22:34:42.000Z,60.602
2017-09-13T22:44:42.000Z,60.651
2017-09-13T22:54:42.000Z,60.659
2017-09-13T23:04:42.000Z,60.719
2017-09-13T23:14:42.000Z,60.716
2017-09-13T23:24:45.000Z,60.668
2017-09-13T23:34:42.000Z,60.774
2017-09-13T23:44:42.000Z,60.791
2017-09-13T23:54:42.000Z,60.722
